createdAt,value
2018-06-27T00:00:42.228Z,71.47
2018-06-27T00:03:10.431Z,60.00
2018-06-27T00:05:39.088Z,63.50
2018-06-27T00:08:07.868Z,68.57
2018-06-27T00:10:36.449Z,72.23
2018-06-27T00:13:04.912Z,79.73
2018-06-27T00:15:33.669Z,53.50
2018-06-27T00:18:02.113Z,64.57
2018-06-27T00:20:30.701Z,79.07
2018-06-27T00:22:59.235Z,80.77
2018-06-27T00:25:27.967Z,66.97
2018-06-27T00:27:56.445Z,58.70
2018-06-27T00:30:25.028Z,65.03
2018-06-27T00:32:53.564Z,73.57
2018-06-27T00:35:22.041Z,74.70
2018-06-27T00:37:50.469Z,67.07
2018-06-27T00:40:18.939Z,67.77
2018-06-27T00:42:47.546Z,78.83
2018-06-27T00:45:16.195Z,67.07
2018-06-27T00:47:44.622Z,78.87
2018-06-27T00:50:12.788Z,63.43
2018-06-27T00:52:41.259Z,66.70
2018-06-27T00:55:09.721Z,65.43
2018-06-27T00:57:38.156Z,60.10
2018-06-27T01:00:06.644Z,64.27
2018-06-27T01:02:34.747Z,70.60
2018-06-27T01:05:03.219Z,66.43
2018-06-27T01:07:31.666Z,78.47
2018-06-27T01:10:00.192Z,70.13
2018-06-27T01:12:28.656Z,63.43
2018-06-27T01:14:57.302Z,68.53
2018-06-27T01:17:25.729Z,86.47
2018-06-27T01:19:54.205Z,72.10
2018-06-27T01:22:22.684Z,80.13
2018-06-27T01:24:51.223Z,71.27
2018-06-27T01:27:20.705Z,66.73
2018-06-27T01:29:49.220Z,70.73
2018-06-27T01:32:17.357Z,79.23
2018-06-27T01:34:45.827Z,77.10
2018-06-27T01:37:14.477Z,73.23
2018-06-27T01:39:42.942Z,76.07
2018-06-27T01:42:11.415Z,70.17
2018-06-27T01:44:39.864Z,59.60
2018-06-27T01:47:08.335Z,64.73
2018-06-27T01:49:36.947Z,72.10
2018-06-27T01:52:05.493Z,80.90
2018-06-27T01:54:34.303Z,73.07
2018-06-27T01:57:02.805Z,76.07
2018-06-27T01:59:31.250Z,76.10
2018-06-27T02:01:59.984Z,78.93
2018-06-27T02:04:28.569Z,89.33
2018-06-27T02:06:57.184Z,81.87
2018-06-27T02:09:25.301Z,78.90
2018-06-27T02:11:53.755Z,77.83
2018-06-27T02:14:22.430Z,75.60
2018-06-27T02:16:51.469Z,87.37
2018-06-27T02:19:19.929Z,82.60
2018-06-27T02:21:48.438Z,75.20
2018-06-27T02:24:16.993Z,73.23
2018-06-27T02:26:45.610Z,82.50
2018-06-27T02:29:14.063Z,108.33
2018-06-27T02:31:42.906Z,97.60
2018-06-27T02:34:11.362Z,99.13
2018-06-27T02:36:39.981Z,84.10
2018-06-27T02:39:09.899Z,85.40
2018-06-27T02:41:39.492Z,97.13
2018-06-27T02:44:08.384Z,88.70
2018-06-27T02:46:37.197Z,83.70
2018-06-27T02:49:05.323Z,72.07
2018-06-27T02:51:33.822Z,77.10
2018-06-27T02:54:02.333Z,73.37
2018-06-27T02:56:30.481Z,79.70
2018-06-27T02:58:58.940Z,77.97
2018-06-27T03:01:27.389Z,75.80
2018-06-27T03:03:55.897Z,69.10
2018-06-27T03:06:24.350Z,61.67
2018-06-27T03:08:52.813Z,71.37
2018-06-27T03:11:21.303Z,69.27
2018-06-27T03:13:49.425Z,85.43
2018-06-27T03:16:17.884Z,73.17
2018-06-27T03:18:54.045Z,74.10
2018-06-27T03:21:23.103Z,72.50
2018-06-27T03:23:51.799Z,83.73
2018-06-27T03:26:20.395Z,81.33
2018-06-27T03:28:48.544Z,92.03
2018-06-27T03:31:19.100Z,78.30
2018-06-27T03:33:47.686Z,81.77
2018-06-27T03:36:16.245Z,79.53
2018-06-27T03:38:44.776Z,86.73
2018-06-27T03:41:13.358Z,90.87
2018-06-27T03:43:41.868Z,99.53
2018-06-27T03:46:10.376Z,85.93
2018-06-27T03:48:38.836Z,90.40
2018-06-27T03:51:07.381Z,86.23
2018-06-27T03:53:43.167Z,89.83
2018-06-27T03:56:12.665Z,85.90
2018-06-27T03:58:41.156Z,95.37
2018-06-27T04:01:10.687Z,89.40
2018-06-27T04:03:40.623Z,76.50
2018-06-27T04:06:10.209Z,79.80
2018-06-27T04:08:38.689Z,82.17
2018-06-27T04:11:07.152Z,82.90
2018-06-27T04:13:35.865Z,84.97
2018-06-27T04:16:04.307Z,88.30
2018-06-27T04:18:32.835Z,86.40
2018-06-27T04:21:01.318Z,90.83
2018-06-27T04:23:29.760Z,93.80
2018-06-27T04:25:58.196Z,90.73
2018-06-27T04:28:26.425Z,86.23
2018-06-27T04:30:54.915Z,91.60
2018-06-27T04:33:23.376Z,90.70
2018-06-27T04:35:52.166Z,82.50
2018-06-27T04:38:20.663Z,72.17
2018-06-27T04:40:49.181Z,82.13
2018-06-27T04:43:17.452Z,74.53
2018-06-27T04:45:45.839Z,70.27
2018-06-27T04:48:14.356Z,74.13
2018-06-27T04:50:42.856Z,76.33
2018-06-27T04:53:11.410Z,70.57
2018-06-27T04:55:39.876Z,68.50
2018-06-27T04:58:08.302Z,72.37
2018-06-27T05:00:36.831Z,75.00
2018-06-27T05:03:05.292Z,64.30
2018-06-27T05:05:33.784Z,61.43
2018-06-27T05:08:02.434Z,59.07
2018-06-27T05:10:30.868Z,58.23
2018-06-27T05:12:59.471Z,54.17
2018-06-27T05:15:27.592Z,45.97
2018-06-27T05:17:56.111Z,49.83
2018-06-27T05:20:24.600Z,59.97
2018-06-27T05:22:53.250Z,56.53
2018-06-27T05:25:21.973Z,51.07
2018-06-27T05:27:50.426Z,48.70
2018-06-27T05:30:18.917Z,41.40
2018-06-27T05:32:47.561Z,39.77
2018-06-27T05:35:16.096Z,37.57
2018-06-27T05:37:44.591Z,39.30
2018-06-27T05:40:13.382Z,37.23
2018-06-27T05:42:41.811Z,39.97
2018-06-27T05:45:10.324Z,40.50
2018-06-27T05:47:38.973Z,36.07
2018-06-27T05:50:07.894Z,35.90
2018-06-27T05:52:36.496Z,36.13
2018-06-27T05:55:08.237Z,36.67
2018-06-27T05:57:38.128Z,39.80
2018-06-27T06:00:07.594Z,35.60
2018-06-27T06:02:36.444Z,40.10
2018-06-27T06:05:05.783Z,38.50
2018-06-27T06:07:34.473Z,44.67
2018-06-27T06:10:03.712Z,42.90
2018-06-27T06:12:33.379Z,41.03
2018-06-27T06:15:01.914Z,35.60
2018-06-27T06:17:30.464Z,38.27
2018-06-27T06:19:58.982Z,38.97
2018-06-27T06:22:27.472Z,38.53
2018-06-27T06:24:55.935Z,37.70
2018-06-27T06:27:24.388Z,38.20
2018-06-27T06:29:52.829Z,45.07
2018-06-27T06:32:21.457Z,38.00
2018-06-27T06:34:49.931Z,45.30
2018-06-27T06:37:18.380Z,35.45
2018-06-27T06:39:47.882Z,36.55
2018-06-27T06:42:16.362Z,37.65
2018-06-27T06:44:44.820Z,37.48
2018-06-27T06:47:13.289Z,40.73
2018-06-27T06:49:41.879Z,39.20
2018-06-27T06:52:10.441Z,37.03
2018-06-27T06:54:38.915Z,37.78
2018-06-27T06:57:07.359Z,35.43
2018-06-27T06:59:35.839Z,34.00
2018-06-27T07:02:04.397Z,32.93
2018-06-27T07:04:32.825Z,38.63
2018-06-27T07:07:01.573Z,36.53
2018-06-27T07:09:30.319Z,45.73
2018-06-27T07:11:58.849Z,35.55
2018-06-27T07:14:27.386Z,43.15
2018-06-27T07:16:55.873Z,42.98
2018-06-27T07:19:24.308Z,44.55
2018-06-27T07:21:52.905Z,41.10
2018-06-27T07:24:21.393Z,43.20
2018-06-27T07:26:49.934Z,43.65
2018-06-27T07:29:18.451Z,33.53
2018-06-27T07:31:47.486Z,36.83
2018-06-27T07:34:16.541Z,40.80
2018-06-27T07:36:45.118Z,36.68
2018-06-27T07:39:13.574Z,36.77
2018-06-27T07:41:42.637Z,33.60
2018-06-27T07:44:14.768Z,34.18
2018-06-27T07:46:43.307Z,29.80
2018-06-27T07:49:11.740Z,26.35
2018-06-27T07:51:40.145Z,37.35
2018-06-27T07:54:08.601Z,38.58
2018-06-27T07:56:37.110Z,27.77
2018-06-27T07:59:05.795Z,24.00
2018-06-27T08:01:33.951Z,24.87
2018-06-27T08:04:02.364Z,19.55
2018-06-27T08:06:36.045Z,17.05
2018-06-27T08:09:07.740Z,20.15
2018-06-27T08:11:36.241Z,22.70
2018-06-27T08:14:05.136Z,22.22
2018-06-27T08:16:34.145Z,22.40
2018-06-27T08:19:02.641Z,18.70
2018-06-27T08:21:31.103Z,18.23
2018-06-27T08:23:59.661Z,18.52
2018-06-27T08:26:28.446Z,18.57
2018-06-27T08:28:56.695Z,19.45
2018-06-27T08:31:25.214Z,18.92
2018-06-27T08:33:53.734Z,19.87
2018-06-27T08:36:22.251Z,22.40
2018-06-27T08:38:50.898Z,17.32
2018-06-27T08:41:19.429Z,17.25
2018-06-27T08:43:48.223Z,17.60
2018-06-27T08:46:16.619Z,18.92
2018-06-27T08:48:45.108Z,18.40
2018-06-27T08:51:13.588Z,14.68
2018-06-27T08:53:42.307Z,14.07
2018-06-27T08:56:11.005Z,14.03
2018-06-27T08:58:39.466Z,15.23
2018-06-27T09:01:08.232Z,13.78
2018-06-27T09:03:36.760Z,11.80
2018-06-27T09:06:05.349Z,11.73
2018-06-27T09:08:33.821Z,10.32
2018-06-27T09:11:02.585Z,10.43
2018-06-27T09:13:31.094Z,11.00
2018-06-27T09:15:59.891Z,12.23
2018-06-27T09:18:28.369Z,11.25
2018-06-27T09:20:56.852Z,12.03
2018-06-27T09:23:25.397Z,10.48
2018-06-27T09:25:53.965Z,12.30
2018-06-27T09:28:22.397Z,12.88
2018-06-27T09:30:51.023Z,12.37
2018-06-27T09:33:19.518Z,12.68
2018-06-27T09:35:47.928Z,9.93
2018-06-27T09:38:16.862Z,9.45
2018-06-27T09:40:45.588Z,7.78
2018-06-27T09:43:14.096Z,8.83
2018-06-27T09:45:42.583Z,8.78
2018-06-27T09:48:11.152Z,6.53
2018-06-27T09:50:39.669Z,5.70
2018-06-27T09:53:08.236Z,7.37
2018-06-27T09:55:36.717Z,8.13
2018-06-27T09:58:05.209Z,6.67
2018-06-27T10:00:39.519Z,6.62
2018-06-27T10:03:09.283Z,6.35
2018-06-27T10:05:38.749Z,6.97
2018-06-27T10:08:07.677Z,7.80
2018-06-27T10:10:36.224Z,7.47
2018-06-27T10:13:05.031Z,8.78
2018-06-27T10:15:33.489Z,8.10
2018-06-27T10:18:01.929Z,8.45
2018-06-27T10:20:30.393Z,6.90
2018-06-27T10:22:58.888Z,7.40
2018-06-27T10:25:27.426Z,11.18
2018-06-27T10:27:55.912Z,7.12
2018-06-27T10:30:24.392Z,13.95
2018-06-27T10:32:52.905Z,12.35
2018-06-27T10:35:21.554Z,13.30
2018-06-27T10:37:50.064Z,7.10
2018-06-27T10:40:18.608Z,10.75
2018-06-27T10:42:47.075Z,9.33
2018-06-27T10:45:15.630Z,14.53
2018-06-27T10:47:44.104Z,11.73
2018-06-27T10:50:12.656Z,7.20
2018-06-27T10:52:41.173Z,6.67
2018-06-27T10:55:15.179Z,9.28
2018-06-27T10:57:43.669Z,9.45
2018-06-27T11:00:12.341Z,8.90
2018-06-27T11:02:40.845Z,14.55
2018-06-27T11:05:09.498Z,6.78
2018-06-27T11:07:38.100Z,4.83
2018-06-27T11:10:07.229Z,6.85
2018-06-27T11:12:35.641Z,5.62
2018-06-27T11:15:04.171Z,8.80
2018-06-27T11:17:38.174Z,6.77
2018-06-27T11:20:09.696Z,4.63
2018-06-27T11:22:41.339Z,11.35
2018-06-27T11:25:17.136Z,9.05
2018-06-27T11:27:49.730Z,14.23
2018-06-27T11:30:19.832Z,6.25
2018-06-27T11:32:48.908Z,5.53
2018-06-27T11:35:24.768Z,6.37
2018-06-27T11:37:53.269Z,10.88
2018-06-27T11:40:22.004Z,11.40
2018-06-27T11:42:50.501Z,6.10
2018-06-27T11:45:26.572Z,9.75
2018-06-27T11:47:55.122Z,12.95
2018-06-27T11:50:24.274Z,5.67
2018-06-27T11:52:52.857Z,7.60
2018-06-27T11:55:21.372Z,5.83
2018-06-27T11:57:49.893Z,11.25
2018-06-27T12:00:18.478Z,5.42
2018-06-27T12:02:47.053Z,9.08
2018-06-27T12:05:15.578Z,5.12
2018-06-27T12:07:44.214Z,8.00
2018-06-27T12:10:12.801Z,4.70
2018-06-27T12:12:41.709Z,7.93
2018-06-27T12:15:10.517Z,4.90
2018-06-27T12:17:39.982Z,4.65
2018-06-27T12:20:08.553Z,4.30
2018-06-27T12:22:37.084Z,6.45
2018-06-27T12:25:05.877Z,8.57
2018-06-27T12:27:34.551Z,6.17
2018-06-27T12:30:03.209Z,4.67
2018-06-27T12:32:31.975Z,3.15
2018-06-27T12:35:00.581Z,7.35
2018-06-27T12:37:29.065Z,6.05
2018-06-27T12:39:57.618Z,3.50
2018-06-27T12:42:26.093Z,4.12
2018-06-27T12:44:54.968Z,2.70
2018-06-27T12:47:23.531Z,3.93
2018-06-27T12:49:52.428Z,8.20
2018-06-27T12:52:20.969Z,7.90
2018-06-27T12:54:52.086Z,4.87
2018-06-27T12:57:20.600Z,6.75
2018-06-27T12:59:49.136Z,3.80
2018-06-27T13:02:17.646Z,4.58
2018-06-27T13:04:47.167Z,6.17
2018-06-27T13:07:15.709Z,4.70
2018-06-27T13:09:44.105Z,8.10
2018-06-27T13:12:12.665Z,5.77
2018-06-27T13:14:41.138Z,5.67
2018-06-27T13:17:11.416Z,5.62
2018-06-27T13:19:39.960Z,7.00
2018-06-27T13:22:08.561Z,7.78
2018-06-27T13:24:37.454Z,7.92
2018-06-27T13:27:06.351Z,7.45
2018-06-27T13:29:34.836Z,9.70
2018-06-27T13:32:03.680Z,6.75
2018-06-27T13:34:32.290Z,7.33
2018-06-27T13:37:00.906Z,7.43
2018-06-27T13:39:29.395Z,7.10
2018-06-27T13:41:58.014Z,6.97
2018-06-27T13:44:26.615Z,16.30
2018-06-27T13:46:55.150Z,6.58
2018-06-27T13:49:23.911Z,6.13
2018-06-27T13:51:52.485Z,6.28
2018-06-27T13:54:20.699Z,9.60
2018-06-27T13:56:49.253Z,5.85
2018-06-27T13:59:18.259Z,11.22
2018-06-27T14:01:47.234Z,6.05
2018-06-27T14:04:15.884Z,7.67
2018-06-27T14:06:44.377Z,4.42
2018-06-27T14:09:13.068Z,5.58
2018-06-27T14:11:41.643Z,6.25
2018-06-27T14:14:10.598Z,6.42
2018-06-27T14:16:39.494Z,4.05
2018-06-27T14:19:07.980Z,5.12
2018-06-27T14:21:36.796Z,5.00
2018-06-27T14:24:05.748Z,6.85
2018-06-27T14:26:34.309Z,4.85
2018-06-27T14:29:03.456Z,2.92
2018-06-27T14:31:31.962Z,3.00
2018-06-27T14:34:00.439Z,6.87
2018-06-27T14:36:28.889Z,2.70
2018-06-27T14:38:57.354Z,3.92
2018-06-27T14:41:25.956Z,4.08
2018-06-27T14:43:54.612Z,2.45
2018-06-27T14:46:23.503Z,6.03
2018-06-27T14:48:52.073Z,2.77
2018-06-27T14:51:20.543Z,3.90
2018-06-27T14:53:49.037Z,2.62
2018-06-27T14:56:17.605Z,3.15
2018-06-27T14:58:46.043Z,3.30
2018-06-27T15:01:14.537Z,3.90
2018-06-27T15:03:42.970Z,3.72
2018-06-27T15:06:11.495Z,6.00
2018-06-27T15:08:39.965Z,3.83
2018-06-27T15:11:08.844Z,6.75
2018-06-27T15:13:37.315Z,3.60
2018-06-27T15:16:05.841Z,3.05
2018-06-27T15:18:34.396Z,4.08
2018-06-27T15:21:02.964Z,5.10
2018-06-27T15:23:31.548Z,11.23
2018-06-27T15:26:00.066Z,6.75
2018-06-27T15:28:29.555Z,4.75
2018-06-27T15:30:58.044Z,5.90
2018-06-27T15:33:26.552Z,3.98
2018-06-27T15:35:55.016Z,5.50
2018-06-27T15:38:23.516Z,4.85
2018-06-27T15:40:52.589Z,6.80
2018-06-27T15:43:21.386Z,4.53
2018-06-27T15:45:49.942Z,8.37
2018-06-27T15:48:18.557Z,4.33
2018-06-27T15:50:47.063Z,5.17
2018-06-27T15:53:15.605Z,4.30
2018-06-27T15:55:44.140Z,4.73
2018-06-27T15:58:12.752Z,4.10
2018-06-27T16:00:41.251Z,4.83
2018-06-27T16:03:09.818Z,5.27
2018-06-27T16:05:38.641Z,5.47
2018-06-27T16:08:09.021Z,6.40
2018-06-27T16:10:37.820Z,5.13
2018-06-27T16:13:06.544Z,6.67
2018-06-27T16:15:35.107Z,5.67
2018-06-27T16:18:03.603Z,5.10
2018-06-27T16:20:32.229Z,4.80
2018-06-27T16:23:00.824Z,4.43
2018-06-27T16:25:29.320Z,5.27
2018-06-27T16:27:57.926Z,6.93
2018-06-27T16:30:26.420Z,4.60
2018-06-27T16:32:54.973Z,4.57
2018-06-27T16:35:23.508Z,4.23
2018-06-27T16:37:52.126Z,5.70
2018-06-27T16:40:20.667Z,4.27
2018-06-27T16:42:49.148Z,11.10
2018-06-27T16:45:18.735Z,4.60
2018-06-27T16:47:47.216Z,4.37
2018-06-27T16:50:15.662Z,4.30
2018-06-27T16:52:44.299Z,5.17
2018-06-27T16:55:12.783Z,3.70
2018-06-27T16:57:41.320Z,3.73
2018-06-27T17:00:10.109Z,4.30
2018-06-27T17:02:38.922Z,4.17
2018-06-27T17:05:07.840Z,4.30
2018-06-27T17:07:36.597Z,4.47
2018-06-27T17:10:06.028Z,4.67
2018-06-27T17:12:34.627Z,4.10
2018-06-27T17:15:02.789Z,5.00
2018-06-27T17:17:31.356Z,4.10
2018-06-27T17:19:59.999Z,4.43
2018-06-27T17:22:28.841Z,3.63
2018-06-27T17:24:57.329Z,3.57
2018-06-27T17:27:25.942Z,3.13
2018-06-27T17:29:54.702Z,6.07
2018-06-27T17:32:23.534Z,2.97
2018-06-27T17:34:52.104Z,2.13
2018-06-27T17:37:20.919Z,3.40
2018-06-27T17:39:49.451Z,4.60
2018-06-27T17:42:17.985Z,3.20
2018-06-27T17:44:46.924Z,6.50
2018-06-27T17:47:15.407Z,2.87
2018-06-27T17:49:43.969Z,3.00
2018-06-27T17:52:12.905Z,3.03
2018-06-27T17:54:41.038Z,4.43
2018-06-27T17:57:09.558Z,2.77
2018-06-27T17:59:38.040Z,2.50
2018-06-27T18:02:06.765Z,7.20
2018-06-27T18:04:35.516Z,2.90
2018-06-27T18:07:04.089Z,3.33
2018-06-27T18:09:32.945Z,3.20
2018-06-27T18:12:01.592Z,6.83
2018-06-27T18:14:30.092Z,3.23
2018-06-27T18:16:59.066Z,4.33
2018-06-27T18:19:27.558Z,4.40
2018-06-27T18:21:56.142Z,8.00
2018-06-27T18:24:25.114Z,7.77
2018-06-27T18:26:53.720Z,5.03
2018-06-27T18:29:22.289Z,4.90
2018-06-27T18:31:50.899Z,4.50
2018-06-27T18:34:19.436Z,4.00
2018-06-27T18:36:48.628Z,9.93
2018-06-27T18:39:17.375Z,6.27
2018-06-27T18:41:45.811Z,4.00
2018-06-27T18:44:14.598Z,3.87
2018-06-27T18:46:43.137Z,5.27
2018-06-27T18:49:11.703Z,4.00
2018-06-27T18:51:40.242Z,4.33
2018-06-27T18:54:08.842Z,9.03
2018-06-27T18:56:37.526Z,3.97
2018-06-27T18:59:06.121Z,7.67
2018-06-27T19:01:34.903Z,4.30
2018-06-27T19:04:04.327Z,6.30
2018-06-27T19:06:32.873Z,5.40
2018-06-27T19:09:01.473Z,6.73
2018-06-27T19:11:30.103Z,4.63
2018-06-27T19:13:58.589Z,4.07
2018-06-27T19:16:27.043Z,7.00
2018-06-27T19:18:56.324Z,4.10
2018-06-27T19:21:25.060Z,4.13
2018-06-27T19:23:53.892Z,4.40
2018-06-27T19:26:22.830Z,3.87
2018-06-27T19:28:51.302Z,4.10
2018-06-27T19:31:21.100Z,8.37
2018-06-27T19:33:49.362Z,4.33
2018-06-27T19:36:17.863Z,5.87
2018-06-27T19:38:46.734Z,4.33
2018-06-27T19:41:15.862Z,4.60
2018-06-27T19:43:44.414Z,4.10
2018-06-27T19:46:13.225Z,4.80
2018-06-27T19:48:41.726Z,10.00
2018-06-27T19:51:10.300Z,4.87
2018-06-27T19:53:38.879Z,4.03
2018-06-27T19:56:07.497Z,4.73
2018-06-27T19:58:37.402Z,4.63
2018-06-27T20:01:06.093Z,4.07
2018-06-27T20:03:45.634Z,4.77
2018-06-27T20:06:14.201Z,4.70
2018-06-27T20:08:42.785Z,11.03
2018-06-27T20:11:11.322Z,4.40
2018-06-27T20:13:40.453Z,3.37
2018-06-27T20:16:09.106Z,4.73
2018-06-27T20:18:37.508Z,13.50
2018-06-27T20:21:06.052Z,8.00
2018-06-27T20:23:34.796Z,7.67
2018-06-27T20:26:03.587Z,6.13
2018-06-27T20:28:32.266Z,4.03
2018-06-27T20:31:00.761Z,5.63
2018-06-27T20:33:29.432Z,9.73
2018-06-27T20:35:57.968Z,8.00
2018-06-27T20:38:26.628Z,5.53
2018-06-27T20:40:55.892Z,13.83
2018-06-27T20:43:24.481Z,8.00
2018-06-27T20:45:53.174Z,8.20
2018-06-27T20:48:21.686Z,4.30
2018-06-27T20:50:50.164Z,9.50
2018-06-27T20:53:18.735Z,9.10
2018-06-27T20:55:47.216Z,11.33
2018-06-27T20:58:15.774Z,6.20
2018-06-27T21:00:45.042Z,16.63
2018-06-27T21:03:13.556Z,11.97
2018-06-27T21:05:42.205Z,6.40
2018-06-27T21:08:10.809Z,10.80
2018-06-27T21:10:39.476Z,4.97
2018-06-27T21:13:08.330Z,7.83
2018-06-27T21:15:37.291Z,4.33
2018-06-27T21:18:07.892Z,5.20
2018-06-27T21:20:36.426Z,7.47
2018-06-27T21:23:05.358Z,5.37
2018-06-27T21:25:33.831Z,13.70
2018-06-27T21:28:02.290Z,6.97
2018-06-27T21:30:31.081Z,9.80
2018-06-27T21:32:59.561Z,11.57
2018-06-27T21:35:28.147Z,8.00
2018-06-27T21:37:56.653Z,10.03
2018-06-27T21:40:25.641Z,7.03
2018-06-27T21:42:54.531Z,6.27
2018-06-27T21:45:23.045Z,15.63
2018-06-27T21:47:51.581Z,10.80
2018-06-27T21:50:20.008Z,5.73
2018-06-27T21:52:48.614Z,4.47
2018-06-27T21:55:17.352Z,4.23
2018-06-27T21:57:46.158Z,5.10
2018-06-27T22:00:15.799Z,5.10
2018-06-27T22:02:44.470Z,5.80
2018-06-27T22:05:12.991Z,5.80
2018-06-27T22:07:41.482Z,13.57
2018-06-27T22:10:10.105Z,8.33
2018-06-27T22:12:38.697Z,4.50
2018-06-27T22:15:07.201Z,7.53
2018-06-27T22:17:35.770Z,5.07
2018-06-27T22:20:04.329Z,6.40
2018-06-27T22:22:32.751Z,6.57
2018-06-27T22:25:01.190Z,4.83
2018-06-27T22:27:29.692Z,5.43
2018-06-27T22:29:58.126Z,7.43
2018-06-27T22:32:26.544Z,5.30
2018-06-27T22:34:55.037Z,6.87
2018-06-27T22:37:23.492Z,7.77
2018-06-27T22:39:52.019Z,6.63
2018-06-27T22:42:20.486Z,6.57
2018-06-27T22:44:48.962Z,5.03
2018-06-27T22:47:17.525Z,5.60
2018-06-27T22:49:46.050Z,6.87
2018-06-27T22:52:14.593Z,6.70
2018-06-27T22:54:43.044Z,9.27
2018-06-27T22:57:11.605Z,8.30
2018-06-27T22:59:40.129Z,9.83
2018-06-27T23:02:09.025Z,7.97
2018-06-27T23:04:37.512Z,6.73
2018-06-27T23:07:05.664Z,5.53
2018-06-27T23:09:34.157Z,8.13
2018-06-27T23:12:02.585Z,6.40
2018-06-27T23:14:31.237Z,5.13
2018-06-27T23:16:59.686Z,6.17
2018-06-27T23:19:28.261Z,6.20
2018-06-27T23:21:56.589Z,5.43
2018-06-27T23:24:25.029Z,6.47
2018-06-27T23:26:53.609Z,6.70
2018-06-27T23:29:22.538Z,6.67
2018-06-27T23:31:51.180Z,6.60
2018-06-27T23:34:19.634Z,7.30
2018-06-27T23:36:48.147Z,6.50
2018-06-27T23:39:16.612Z,14.30
2018-06-27T23:41:45.561Z,5.90
2018-06-27T23:44:14.013Z,6.77
2018-06-27T23:46:42.506Z,5.63
2018-06-27T23:49:11.024Z,5.97
2018-06-27T23:51:39.936Z,8.03
2018-06-27T23:54:08.476Z,12.53
2018-06-27T23:56:36.957Z,6.50
2018-06-27T23:59:05.407Z,6.53
